Time;durP1;ratioP1;P1;durP2;ratioP2;P2;SDS_P1;SDS_P2;PMS_P1;PMS_P2;Temp;Humidity;BMP_temperature;BMP_pressure;BME280_temperature;BME280_humidity;BME280_pressure;Samples;Min_cycle;Max_cycle;Signal;HPM_P1;HPM_P2
2023/01/05 00:01:25;;;;;;;34.10;24.67;;;;;;;2.40;100.00;97029.78;5086099;28;20041;-70
2023/01/05 00:03:50;;;;;;;27.98;21.75;;;;;;;2.40;100.00;97029.78;5088454;28;20051;-70
2023/01/05 00:06:19;;;;;;;32.45;23.58;;;;;;;2.42;100.00;97020.16;5084665;28;20021;-70
2023/01/05 00:08:44;;;;;;;43.22;30.33;;;;;;;2.44;100.00;97028.75;5089440;28;20040;-70
2023/01/05 00:22:30;;;;;;;26.13;21.98;;;;;;;2.29;100.00;97018.03;5088342;28;20054;-64
2023/01/05 00:25:04;;;;;;;46.88;35.67;;;;;;;2.27;100.00;97019.00;5087096;28;20039;-64
2023/01/05 00:27:30;;;;;;;64.68;43.03;;;;;;;2.27;100.00;97014.63;5086479;28;20028;-64
2023/01/05 00:29:56;;;;;;;45.67;36.13;;;;;;;2.26;100.00;97010.34;5088467;28;20066;-64
2023/01/05 00:32:22;;;;;;;42.78;31.98;;;;;;;2.21;100.00;97007.09;5078263;28;20115;-64
2023/01/05 00:34:49;;;;;;;37.22;29.17;;;;;;;2.19;100.00;97011.50;5082750;28;20028;-64
2023/01/05 00:37:15;;;;;;;31.50;26.48;;;;;;;2.14;100.00;97011.66;5089890;28;20056;-63
2023/01/05 00:39:40;;;;;;;32.67;27.15;;;;;;;2.13;100.00;97011.72;5088006;28;20071;-67
2023/01/05 00:42:05;;;;;;;28.92;24.05;;;;;;;2.12;100.00;97010.03;5089202;28;20060;-68
2023/01/05 00:44:31;;;;;;;27.58;22.25;;;;;;;2.13;100.00;97006.53;5087679;28;20036;-67
2023/01/05 00:46:56;;;;;;;28.73;21.80;;;;;;;2.13;100.00;97017.75;5087489;28;20024;-67
2023/01/05 00:49:21;;;;;;;26.63;22.73;;;;;;;2.11;100.00;97013.53;5085423;28;20032;-67
2023/01/05 00:51:47;;;;;;;23.73;21.20;;;;;;;2.12;100.00;97002.25;5089524;28;20028;-67
2023/01/05 00:54:12;;;;;;;25.58;18.58;;;;;;;2.11;100.00;97005.75;5088015;28;20032;-63
2023/01/05 00:56:37;;;;;;;21.67;19.25;;;;;;;2.11;100.00;97000.56;5085362;28;20502;-63
2023/01/05 00:59:03;;;;;;;20.15;18.00;;;;;;;2.12;100.00;97003.06;5086566;28;20036;-61
2023/01/05 01:01:28;;;;;;;18.13;15.30;;;;;;;2.13;100.00;96994.38;5088693;28;20035;-62
2023/01/05 01:03:54;;;;;;;18.70;16.70;;;;;;;2.18;100.00;97001.13;5089060;28;20047;-62
2023/01/05 01:06:20;;;;;;;21.08;16.58;;;;;;;2.20;100.00;96996.72;5083995;28;20032;-62
2023/01/05 01:08:45;;;;;;;17.77;15.88;;;;;;;2.25;100.00;97003.44;5082251;28;20485;-63
2023/01/05 01:11:11;;;;;;;21.70;18.67;;;;;;;2.32;100.00;96995.41;5088501;28;20024;-63
2023/01/05 01:13:37;;;;;;;19.00;16.90;;;;;;;2.39;100.00;96991.69;5087610;28;20039;-63
2023/01/05 01:16:12;;;;;;;19.33;17.30;;;;;;;2.42;100.00;96986.38;5085572;28;20028;-63
2023/01/05 01:18:38;;;;;;;15.05;13.40;;;;;;;2.52;100.00;96992.06;5086353;28;20046;-63
2023/01/05 01:21:04;;;;;;;14.60;13.05;;;;;;;2.62;100.00;96988.19;5082901;28;20033;-62
2023/01/05 01:23:32;;;;;;;14.55;13.05;;;;;;;2.65;100.00;96992.41;5078247;28;20035;-62
2023/01/05 01:26:02;;;;;;;13.05;11.57;;;;;;;2.70;100.00;96987.88;5084165;28;20029;-62
2023/01/05 01:28:27;;;;;;;14.02;10.73;;;;;;;2.71;100.00;97002.56;5084973;28;20032;-63
2023/01/05 01:30:52;;;;;;;14.57;10.00;;;;;;;2.72;100.00;96994.72;5086049;28;20039;-63
2023/01/05 01:33:18;;;;;;;10.88;9.75;;;;;;;2.77;100.00;96999.75;5082622;28;20041;-60
2023/01/05 01:35:43;;;;;;;12.32;11.15;;;;;;;2.82;100.00;96997.81;5086149;28;20058;-63
2023/01/05 01:38:08;;;;;;;11.35;10.20;;;;;;;2.86;100.00;97004.56;5083771;28;20037;-63
2023/01/05 01:40:42;;;;;;;11.82;10.63;;;;;;;2.89;100.00;96994.94;5086419;28;20077;-63
2023/01/05 01:43:39;;;;;;;13.35;11.15;;;;;;;2.92;100.00;97008.69;5083540;28;20401;-63
2023/01/05 01:46:05;;;;;;;14.25;12.65;;;;;;;2.99;100.00;97004.09;5086977;28;20043;-63
2023/01/05 01:48:31;;;;;;;16.95;14.98;;;;;;;3.04;100.00;97003.88;5088024;28;20059;-63
2023/01/05 01:50:57;;;;;;;15.52;10.77;;;;;;;3.08;100.00;97005.44;5086893;28;20031;-63
2023/01/05 01:53:36;;;;;;;13.27;9.85;;;;;;;3.09;100.00;97001.91;5088381;28;20561;-65
2023/01/05 01:56:05;;;;;;;10.60;8.77;;;;;;;3.13;100.00;96999.13;5087292;28;20094;-70
2023/01/05 01:58:31;;;;;;;11.90;9.88;;;;;;;3.18;100.00;96996.34;5088022;28;20032;-70
2023/01/05 02:01:00;;;;;;;15.55;9.23;;;;;;;3.21;100.00;96988.41;5085181;28;20031;-70
2023/01/05 02:03:27;;;;;;;9.73;8.80;;;;;;;3.24;100.00;96982.25;5089237;28;20036;-69
2023/01/05 02:05:54;;;;;;;10.00;9.00;;;;;;;3.27;100.00;96984.72;5091179;28;20098;-70
2023/01/05 02:08:24;;;;;;;8.48;7.60;;;;;;;3.29;100.00;96983.72;5087327;28;20036;-69
2023/01/05 02:11:14;;;;;;;9.52;8.50;;;;;;;3.32;100.00;96982.75;5082514;28;20036;-70
2023/01/05 02:14:00;;;;;;;9.73;7.85;;;;;;;3.32;100.00;96987.94;5083194;28;20040;-71
2023/01/05 02:16:47;;;;;;;7.25;6.55;;;;;;;3.51;100.00;96990.59;5087409;28;20043;-63
2023/01/05 02:19:46;;;;;;;8.52;7.75;;;;;;;3.82;100.00;96996.22;5083953;28;20040;-62
2023/01/05 02:22:55;;;;;;;10.85;8.40;;;;;;;3.79;100.00;96988.56;5085346;28;20033;-63
2023/01/05 02:25:36;;;;;;;9.73;8.27;;;;;;;3.70;100.00;96985.47;5073527;28;20036;-63
2023/01/05 02:28:07;;;;;;;8.32;7.50;;;;;;;3.66;100.00;96983.03;5087684;28;20032;-63
2023/01/05 02:31:00;;;;;;;8.23;7.35;;;;;;;3.63;100.00;96975.38;5087379;28;20043;-61
2023/01/05 02:33:42;;;;;;;7.00;6.30;;;;;;;3.67;100.00;96980.38;5089086;28;20059;-61
2023/01/05 02:36:20;;;;;;;7.93;6.68;;;;;;;3.70;100.00;96974.19;5090536;28;20028;-64
2023/01/05 02:38:53;;;;;;;8.00;7.20;;;;;;;3.68;100.00;96969.06;5088583;28;20501;-64
2023/01/05 02:41:23;;;;;;;8.05;7.25;;;;;;;3.66;100.00;96962.22;5091369;28;20028;-64
2023/01/05 02:43:49;;;;;;;8.10;7.30;;;;;;;3.66;100.00;96954.41;5081900;28;20033;-64
2023/01/05 02:46:14;;;;;;;13.27;9.32;;;;;;;3.66;100.00;96949.19;5070330;28;20032;-64
2023/01/05 02:48:41;;;;;;;10.05;9.15;;;;;;;3.65;100.00;96947.50;5087119;28;20032;-64
2023/01/05 02:51:12;;;;;;;8.30;7.47;;;;;;;3.65;100.00;96948.34;5085253;28;20063;-63
2023/01/05 02:53:44;;;;;;;9.13;7.22;;;;;;;3.67;100.00;96946.53;5083433;28;20039;-65
2023/01/05 02:56:17;;;;;;;9.50;7.57;;;;;;;3.70;100.00;96943.78;5088607;28;20497;-65
2023/01/05 02:58:49;;;;;;;9.23;7.78;;;;;;;3.73;100.00;96934.97;5090829;28;20028;-66
2023/01/05 03:01:25;;;;;;;7.88;7.03;;;;;;;3.72;100.00;96935.88;5083068;28;20028;-66
2023/01/05 03:03:59;;;;;;;8.90;7.22;;;;;;;3.73;100.00;96934.97;5086157;28;20422;-66
2023/01/05 03:06:46;;;;;;;7.88;7.03;;;;;;;3.73;100.00;96929.75;5087052;28;20410;-65
2023/01/05 03:09:14;;;;;;;7.53;6.88;;;;;;;3.71;100.00;96921.16;5083058;28;20046;-67
2023/01/05 03:14:53;;;;;;;8.88;7.45;;;;;;;3.75;100.00;96929.69;5087408;28;20077;-66
2023/01/05 03:17:28;;;;;;;8.10;7.20;;;;;;;3.80;100.00;96923.38;5087763;28;20067;-66
2023/01/05 03:19:55;;;;;;;10.00;8.23;;;;;;;3.83;100.00;96925.84;5082620;28;20032;-66
2023/01/05 03:36:57;;;;;;;6.18;5.45;;;;;;;3.97;100.00;96925.19;5086808;28;20035;-71
2023/01/05 03:39:27;;;;;;;6.97;5.40;;;;;;;4.00;100.00;96922.44;5071594;28;20036;-71
2023/01/05 03:41:54;;;;;;;6.68;5.85;;;;;;;4.03;100.00;96920.59;5077930;28;20020;-71
2023/01/05 03:44:20;;;;;;;5.25;4.78;;;;;;;4.04;100.00;96922.28;5090939;28;20489;-71
2023/01/05 03:46:45;;;;;;;6.53;5.20;;;;;;;4.06;100.00;96917.84;5091681;28;20571;-71
2023/01/05 03:49:11;;;;;;;6.55;5.95;;;;;;;4.09;100.00;96917.72;5091145;28;20052;-65
2023/01/05 03:51:36;;;;;;;6.10;5.60;;;;;;;4.10;100.00;96919.44;5091331;28;20039;-71
2023/01/05 03:54:02;;;;;;;6.75;6.05;;;;;;;4.18;100.00;96912.09;5090576;28;20134;-71
2023/01/05 03:56:27;;;;;;;7.70;6.28;;;;;;;4.19;100.00;96921.59;5090796;28;20068;-71
2023/01/05 03:58:52;;;;;;;8.25;6.22;;;;;;;4.18;100.00;96921.66;5091054;28;20044;-72
2023/01/05 04:01:18;;;;;;;9.57;6.63;;;;;;;4.19;100.00;96912.91;5091159;28;20032;-71
2023/01/05 04:03:43;;;;;;;10.43;6.93;;;;;;;4.20;100.00;96912.84;5091100;28;20044;-71
2023/01/05 04:06:09;;;;;;;7.03;6.43;;;;;;;4.22;100.00;96911.03;5090667;28;20035;-71
2023/01/05 04:08:34;;;;;;;8.40;6.68;;;;;;;4.24;100.00;96908.34;5090663;28;20040;-67
2023/01/05 04:11:10;;;;;;;7.00;6.10;;;;;;;4.25;100.00;96908.25;5090184;28;20444;-67
2023/01/05 04:13:36;;;;;;;10.60;6.80;;;;;;;4.26;100.00;96904.72;5090730;28;20081;-67
2023/01/05 04:16:01;;;;;;;7.53;6.38;;;;;;;4.27;100.00;96909.03;5083390;28;20090;-66
2023/01/05 04:18:26;;;;;;;8.07;6.20;;;;;;;4.26;100.00;96899.53;5075317;28;20090;-67
2023/01/05 04:20:52;;;;;;;6.30;5.80;;;;;;;4.27;100.00;96903.00;5072707;28;20036;-66
2023/01/05 04:23:17;;;;;;;7.03;6.43;;;;;;;4.28;100.00;96896.84;5066927;28;20036;-66
2023/01/05 04:25:45;;;;;;;6.38;5.78;;;;;;;4.29;100.00;96899.38;5071811;28;20044;-63
2023/01/05 04:28:11;;;;;;;6.25;5.65;;;;;;;4.33;100.00;96899.25;5074092;28;20036;-63
2023/01/05 04:30:36;;;;;;;6.68;5.88;;;;;;;4.34;100.00;96895.72;5071530;28;20422;-69
2023/01/05 04:33:01;;;;;;;6.68;6.07;;;;;;;4.32;100.00;96893.19;5083761;28;20482;-69
2023/01/05 04:35:26;;;;;;;6.18;5.68;;;;;;;4.34;100.00;96896.53;5090251;28;20486;-70
2023/01/05 04:37:52;;;;;;;6.63;5.95;;;;;;;4.31;100.00;96896.69;5076482;28;20032;-69
2023/01/05 04:40:17;;;;;;;7.15;6.53;;;;;;;4.33;100.00;96891.44;5077591;28;20116;-70
2023/01/05 04:42:42;;;;;;;7.72;6.40;;;;;;;4.34;100.00;96887.91;5085901;28;20047;-70
2023/01/05 04:45:09;;;;;;;6.68;6.03;;;;;;;4.32;100.00;96887.97;5085229;28;20038;-65
2023/01/05 04:47:34;;;;;;;6.45;5.85;;;;;;;4.34;100.00;96893.94;5069058;28;20413;-63
2023/01/05 04:49:59;;;;;;;6.78;6.18;;;;;;;4.36;100.00;96891.28;5087464;28;20024;-64
2023/01/05 04:52:25;;;;;;;8.55;5.60;;;;;;;4.37;100.00;96890.34;5080364;28;20028;-63
2023/01/05 04:54:50;;;;;;;10.93;5.65;;;;;;;4.37;100.00;96887.75;5072450;28;20119;-62
2023/01/05 04:57:15;;;;;;;6.68;6.07;;;;;;;4.35;100.00;96886.97;5082724;28;20052;-63
2023/01/05 04:59:41;;;;;;;6.68;6.00;;;;;;;4.35;100.00;96894.81;5076256;28;20481;-64
2023/01/05 05:02:07;;;;;;;6.38;5.78;;;;;;;4.37;100.00;96892.97;5089683;28;20112;-64
2023/01/05 05:04:33;;;;;;;6.82;6.13;;;;;;;4.40;100.00;96887.59;5089126;28;20513;-68
2023/01/05 05:06:58;;;;;;;6.63;6.03;;;;;;;4.43;100.00;96887.44;5089718;28;20081;-63
2023/01/05 05:09:23;;;;;;;7.13;6.53;;;;;;;4.44;100.00;96890.00;5088082;28;20036;-71
2023/01/05 05:11:49;;;;;;;89.43;50.97;;;;;;;4.43;100.00;96890.06;5078101;28;20085;-71
2023/01/05 05:14:14;;;;;;;28.50;16.58;;;;;;;4.41;100.00;96889.28;5073297;28;20131;-70
2023/01/05 05:16:39;;;;;;;11.68;9.13;;;;;;;4.41;100.00;96889.28;5081783;28;20036;-71
2023/01/05 05:19:05;;;;;;;10.75;7.22;;;;;;;4.42;100.00;96893.56;5086072;28;20027;-71
2023/01/05 05:21:30;;;;;;;14.70;9.63;;;;;;;4.44;100.00;96892.59;5083888;28;20490;-72
2023/01/05 05:23:55;;;;;;;13.15;8.70;;;;;;;4.44;100.00;96896.94;5079032;28;20035;-70
2023/01/05 05:26:21;;;;;;;10.85;6.75;;;;;;;4.44;100.00;96894.34;5082411;28;20043;-65
2023/01/05 05:28:46;;;;;;;6.68;6.05;;;;;;;4.43;100.00;96895.25;5078363;28;20036;-72
2023/01/05 05:31:11;;;;;;;11.25;6.43;;;;;;;4.42;100.00;96890.97;5075477;28;20085;-72
2023/01/05 05:33:37;;;;;;;9.45;6.05;;;;;;;4.43;100.00;96896.13;5075006;28;20057;-71
2023/01/05 05:36:04;;;;;;;6.55;6.05;;;;;;;4.44;100.00;96895.22;5076865;28;20162;-71
2023/01/05 05:38:29;;;;;;;6.28;5.70;;;;;;;4.46;100.00;96887.28;5088001;28;20097;-71
2023/01/05 05:40:54;;;;;;;6.65;5.75;;;;;;;4.49;100.00;96897.56;5077494;28;20115;-71
2023/01/05 05:43:20;;;;;;;7.10;6.43;;;;;;;4.48;100.00;96893.28;5071181;28;20075;-63
2023/01/05 05:45:45;;;;;;;12.20;8.43;;;;;;;4.44;100.00;96897.81;5082561;28;20032;-64
2023/01/05 05:48:11;;;;;;;12.82;11.38;;;;;;;4.44;100.00;96899.56;5071048;28;20029;-63
2023/01/05 05:50:36;;;;;;;10.82;9.68;;;;;;;4.47;100.00;96891.59;5069773;28;20051;-64
2023/01/05 05:53:01;;;;;;;9.07;7.00;;;;;;;4.46;100.00;96896.88;5069065;28;20131;-64
2023/01/05 05:55:27;;;;;;;7.47;6.32;;;;;;;4.47;100.00;96899.41;5081882;28;20494;-63
2023/01/05 05:57:52;;;;;;;10.35;6.30;;;;;;;4.46;100.00;96896.88;5086085;28;20039;-63
2023/01/05 06:00:17;;;;;;;6.38;5.85;;;;;;;4.46;100.00;96902.09;5079920;28;20032;-63
2023/01/05 06:02:43;;;;;;;8.65;5.60;;;;;;;4.50;100.00;96903.66;5071724;28;20508;-64
2023/01/05 06:05:08;;;;;;;9.13;5.30;;;;;;;4.49;100.00;96910.59;5089160;28;20069;-71
2023/01/05 06:07:33;;;;;;;8.80;6.45;;;;;;;4.50;100.00;96904.47;5075326;28;20085;-71
2023/01/05 06:09:59;;;;;;;8.18;7.45;;;;;;;4.62;100.00;96912.63;5080124;28;20044;-71
2023/01/05 06:12:24;;;;;;;12.07;11.00;;;;;;;4.61;100.00;96908.34;5066729;28;20089;-70
2023/01/05 06:14:50;;;;;;;10.02;9.13;;;;;;;4.62;100.00;96902.19;5088519;28;20043;-70
2023/01/05 06:17:15;;;;;;;8.23;5.93;;;;;;;4.62;100.00;96903.03;5086982;28;20037;-71
2023/01/05 06:19:40;;;;;;;10.23;6.30;;;;;;;4.62;100.00;96904.81;5088561;28;20059;-70
2023/01/05 06:22:05;;;;;;;7.22;6.63;;;;;;;4.62;100.00;96910.84;5087213;28;20029;-71
2023/01/05 06:24:31;;;;;;;6.78;6.18;;;;;;;4.68;100.00;96912.31;5089509;28;20496;-66
2023/01/05 06:26:56;;;;;;;7.80;6.53;;;;;;;4.67;100.00;96905.41;5086692;28;20550;-61
2023/01/05 06:29:21;;;;;;;9.55;7.00;;;;;;;4.73;100.00;96911.19;5088052;28;20619;-60
2023/01/05 06:31:47;;;;;;;9.73;7.53;;;;;;;4.65;100.00;96912.47;5075491;28;20024;-60
2023/01/05 06:34:12;;;;;;;8.43;7.47;;;;;;;4.61;100.00;96910.94;5088948;28;20138;-60
2023/01/05 06:36:37;;;;;;;11.77;7.78;;;;;;;4.61;100.00;96906.56;5088108;28;20115;-61
2023/01/05 06:39:03;;;;;;;12.18;7.68;;;;;;;4.56;100.00;96906.81;5088890;28;20085;-61
2023/01/05 06:41:29;;;;;;;9.65;7.63;;;;;;;4.56;100.00;96911.16;5074718;28;20101;-65
2023/01/05 06:43:54;;;;;;;10.85;7.50;;;;;;;4.53;100.00;96913.91;5077832;28;20028;-63
2023/01/05 06:46:20;;;;;;;8.88;7.47;;;;;;;4.53;100.00;96914.78;5084743;28;20032;-63
2023/01/05 06:48:45;;;;;;;8.43;7.55;;;;;;;4.51;100.00;96916.59;5090617;28;20036;-63
2023/01/05 06:51:10;;;;;;;9.10;7.68;;;;;;;4.49;100.00;96918.44;5090036;28;20044;-64
2023/01/05 06:53:36;;;;;;;11.77;7.70;;;;;;;4.46;100.00;96918.59;5083191;28;20038;-64
2023/01/05 06:56:01;;;;;;;10.63;8.02;;;;;;;4.46;100.00;96918.59;5084299;28;20040;-64
2023/01/05 06:58:26;;;;;;;11.95;10.75;;;;;;;4.46;100.00;96918.59;5092114;28;20040;-65
2023/01/05 07:00:55;;;;;;;13.55;12.15;;;;;;;4.48;100.00;96918.53;5091169;28;20073;-68
2023/01/05 07:03:22;;;;;;;15.88;14.35;;;;;;;4.49;100.00;96920.22;5080060;28;20079;-62
2023/01/05 07:05:47;;;;;;;16.60;14.90;;;;;;;4.48;100.00;96921.97;5091636;28;20047;-65
2023/01/05 07:08:13;;;;;;;16.63;14.70;;;;;;;4.48;100.00;96916.75;5091894;28;20032;-63
2023/01/05 07:10:38;;;;;;;13.75;11.02;;;;;;;4.46;100.00;96909.94;5091053;28;20036;-66
2023/01/05 07:13:03;;;;;;;11.13;7.85;;;;;;;4.45;100.00;96914.28;5091880;28;20581;-62
2023/01/05 07:15:29;;;;;;;10.35;8.30;;;;;;;4.39;100.00;96906.78;5090407;28;20039;-61
2023/01/05 07:17:54;;;;;;;10.55;7.97;;;;;;;4.37;100.00;96903.41;5091409;28;20027;-62
2023/01/05 07:20:19;;;;;;;12.55;7.93;;;;;;;4.36;100.00;96901.69;5089480;28;20028;-65
2023/01/05 07:22:45;;;;;;;12.43;7.68;;;;;;;4.37;100.00;96895.56;5090019;28;20032;-70
2023/01/05 07:25:10;;;;;;;7.82;6.80;;;;;;;4.35;100.00;96892.19;5088264;28;20039;-65
2023/01/05 07:27:35;;;;;;;8.18;7.38;;;;;;;4.33;100.00;96884.44;5082993;28;20094;-65
2023/01/05 07:30:01;;;;;;;13.05;7.25;;;;;;;4.28;100.00;96889.84;5072537;28;20032;-65
2023/01/05 07:32:26;;;;;;;8.75;7.72;;;;;;;4.23;100.00;96886.63;5079452;28;20474;-64
2023/01/05 07:34:52;;;;;;;10.02;7.40;;;;;;;4.18;100.00;96882.56;5087269;28;20052;-64
2023/01/05 07:37:17;;;;;;;13.18;9.15;;;;;;;4.15;100.00;96879.19;5079153;28;20041;-64
2023/01/05 07:39:42;;;;;;;14.48;8.05;;;;;;;4.10;100.00;96875.94;5089386;28;20413;-63
2023/01/05 07:42:08;;;;;;;10.65;9.02;;;;;;;4.05;100.00;96874.47;5090195;28;20028;-69
2023/01/05 07:44:33;;;;;;;15.65;8.77;;;;;;;3.95;100.00;96871.44;5089551;28;20067;-69
2023/01/05 07:46:59;;;;;;;11.65;10.10;;;;;;;3.95;100.00;96869.72;5090112;28;20029;-69
2023/01/05 07:49:24;;;;;;;13.80;10.25;;;;;;;3.94;100.00;96870.63;5073738;28;20029;-68
2023/01/05 07:51:49;;;;;;;16.33;10.15;;;;;;;3.91;100.00;96873.38;5078927;28;20437;-69
2023/01/05 07:54:15;;;;;;;12.48;10.18;;;;;;;3.86;100.00;96863.16;5089418;28;21360;-69
2023/01/05 07:56:40;;;;;;;12.60;10.30;;;;;;;3.82;100.00;96881.59;5089758;28;20461;-68
2023/01/05 07:59:06;;;;;;;12.55;10.98;;;;;;;3.75;100.00;96877.59;5089515;28;20028;-61
2023/01/05 08:01:31;;;;;;;13.43;10.10;;;;;;;3.69;100.00;96871.75;5070166;28;20228;-61
2023/01/05 08:03:57;;;;;;;12.52;9.75;;;;;;;3.62;100.00;96875.53;5069852;28;20052;-64
2023/01/05 08:06:22;;;;;;;12.18;9.15;;;;;;;3.58;100.00;96872.25;5070346;28;20029;-64
2023/01/05 08:08:48;;;;;;;17.77;9.68;;;;;;;3.60;100.00;96882.59;5069618;28;20036;-64
2023/01/05 08:11:15;;;;;;;15.85;10.52;;;;;;;3.62;100.00;96874.72;5069893;28;20029;-64
2023/01/05 08:14:01;;;;;;;26.30;10.32;;;;;;;3.61;100.00;96879.06;5069783;28;20409;-66
2023/01/05 08:16:29;;;;;;;30.67;23.92;;;;;;;3.58;100.00;96867.03;5070186;28;20029;-64
2023/01/05 08:18:55;;;;;;;23.02;18.15;;;;;;;3.58;100.00;96868.78;5083437;28;20638;-66
2023/01/05 08:21:20;;;;;;;20.23;13.15;;;;;;;3.58;100.00;96874.84;5070203;28;20040;-66
2023/01/05 08:23:46;;;;;;;12.68;11.55;;;;;;;3.65;100.00;96870.22;5071029;28;20043;-67
2023/01/05 08:26:14;;;;;;;19.60;16.45;;;;;;;3.65;100.00;96872.81;5070461;28;20032;-66
2023/01/05 08:28:40;;;;;;;20.60;17.15;;;;;;;3.64;100.00;96872.88;5070883;28;20031;-66
2023/01/05 08:31:09;;;;;;;20.92;18.42;;;;;;;3.68;100.00;96874.44;5062610;28;20039;-66
2023/01/05 08:33:35;;;;;;;16.65;12.98;;;;;;;3.74;100.00;96874.13;5083133;28;20127;-65
2023/01/05 08:36:01;;;;;;;15.98;12.75;;;;;;;3.82;100.00;96881.59;5079434;28;21995;-66
2023/01/05 08:38:26;;;;;;;9.35;8.20;;;;;;;3.94;100.00;96875.84;5082936;28;20116;-62
2023/01/05 08:40:52;;;;;;;10.82;7.85;;;;;;;4.11;100.00;96871.59;5086065;28;20048;-64
2023/01/05 08:43:18;;;;;;;21.17;19.17;;;;;;;4.33;100.00;96867.97;5063080;28;20032;-66
2023/01/05 08:45:48;;;;;;;17.92;10.13;;;;;;;4.49;100.00;96874.09;5086256;28;20092;-65
2023/01/05 08:48:14;;;;;;;10.13;8.32;;;;;;;4.63;100.00;96869.97;5080937;28;20032;-65
2023/01/05 08:50:40;;;;;;;10.52;9.52;;;;;;;4.68;100.00;96874.06;5085398;28;20113;-65
2023/01/05 08:53:05;;;;;;;10.95;8.25;;;;;;;4.73;100.00;96863.38;5080937;28;20070;-65
2023/01/05 08:55:30;;;;;;;12.10;8.23;;;;;;;4.77;100.00;96866.69;5085372;28;20039;-65
2023/01/05 08:57:56;;;;;;;14.60;8.18;;;;;;;4.80;100.00;96867.38;5076553;28;20516;-62
2023/01/05 09:00:22;;;;;;;13.35;12.13;;;;;;;4.92;100.00;96867.66;5088299;28;20044;-62
2023/01/05 09:02:47;;;;;;;10.93;9.82;;;;;;;4.94;100.00;96865.81;5086338;28;20028;-62
2023/01/05 09:05:13;;;;;;;14.95;12.95;;;;;;;5.02;100.00;96868.91;5088018;28;20414;-62
2023/01/05 09:07:38;;;;;;;13.93;12.48;;;;;;;5.16;100.00;96862.97;5085758;28;20028;-62
2023/01/05 09:10:05;;;;;;;18.13;13.32;;;;;;;5.33;100.00;96856.84;5087716;28;20615;-62
2023/01/05 09:12:30;;;;;;;29.50;22.95;;;;;;;5.52;100.00;96866.31;5085655;28;20031;-62
2023/01/05 09:14:56;;;;;;;23.70;17.65;;;;;;;5.67;100.00;96865.50;5086287;28;20131;-62
2023/01/05 09:17:21;;;;;;;16.70;12.82;;;;;;;5.81;100.00;96861.28;5081981;28;20068;-65
2023/01/05 09:19:47;;;;;;;14.40;12.80;;;;;;;5.97;100.00;96861.31;5088191;28;20485;-69
2023/01/05 09:22:12;;;;;;;16.35;13.07;;;;;;;6.09;100.00;96854.59;5085896;28;20051;-70
2023/01/05 09:24:38;;;;;;;14.60;12.45;;;;;;;6.20;100.00;96846.97;5089686;28;20028;-69
2023/01/05 09:27:04;;;;;;;21.88;15.55;;;;;;;6.28;100.00;96851.78;5087789;28;20028;-69
2023/01/05 09:29:30;;;;;;;23.80;18.38;;;;;;;6.30;100.00;96849.91;5089419;28;20106;-70
2023/01/05 09:31:55;;;;;;;42.03;34.35;;;;;;;6.23;100.00;96841.56;5070644;28;20107;-70
2023/01/05 09:34:20;;;;;;;28.90;25.27;;;;;;;6.18;100.00;96833.16;5063120;28;20035;-70
2023/01/05 09:36:46;;;;;;;15.60;14.00;;;;;;;6.14;100.00;96824.63;5089524;28;20028;-69
2023/01/05 09:39:11;;;;;;;12.98;11.55;;;;;;;6.26;100.00;96824.88;5089114;28;20140;-62
2023/01/05 09:41:59;;;;;;;15.80;13.07;;;;;;;6.74;100.00;96830.81;5087352;28;20039;-62
2023/01/05 09:44:34;;;;;;;14.82;13.25;;;;;;;7.28;100.00;96824.13;5087583;28;20044;-62
2023/01/05 09:47:03;;;;;;;11.85;8.35;;;;;;;7.76;100.00;96822.13;5089081;28;20555;-62
2023/01/05 09:49:32;;;;;;;10.38;9.38;;;;;;;8.18;100.00;96822.94;5087549;28;20132;-62
2023/01/05 09:52:01;;;;;;;9.30;8.15;;;;;;;8.65;97.86;96825.22;5088779;28;20043;-63
2023/01/05 09:54:30;;;;;;;8.20;7.35;;;;;;;8.93;94.54;96820.72;5086936;28;20040;-64
2023/01/05 09:56:57;;;;;;;7.75;6.00;;;;;;;9.25;92.04;96812.44;5088329;28;20028;-68
2023/01/05 09:59:28;;;;;;;8.75;5.15;;;;;;;9.50;91.47;96815.97;5088548;28;20036;-64
2023/01/05 10:01:57;;;;;;;5.65;5.13;;;;;;;9.64;90.29;96807.97;5089443;28;20036;-64
2023/01/05 10:04:25;;;;;;;5.88;5.40;;;;;;;9.67;87.66;96810.38;5072321;28;20045;-65
2023/01/05 10:06:56;;;;;;;6.63;4.65;;;;;;;9.69;87.71;96816.38;5069349;28;20066;-64
2023/01/05 10:09:32;;;;;;;6.82;4.40;;;;;;;9.74;85.24;96811.63;5080817;28;20423;-64
2023/01/05 10:14:53;;;;;;;;;;;;;;;9.53;85.14;96823.66;5078024;28;20047;-69
2023/01/05 10:17:21;;;;;;;20.57;12.63;;;;;;;9.61;83.21;96826.56;5084134;28;20362;-65
2023/01/05 10:19:47;;;;;;;21.75;13.30;;;;;;;9.82;82.75;96818.13;5086545;28;20109;-64
2023/01/05 10:22:39;;;;;;;18.80;9.43;;;;;;;9.73;79.75;96825.72;5070921;28;20047;-64
2023/01/05 10:25:23;;;;;;;3.08;2.80;;;;;;;9.79;78.80;96823.59;5088738;28;20040;-65
2023/01/05 10:27:58;;;;;;;2.30;2.20;;;;;;;9.87;75.90;96826.53;5088264;28;20059;-65
2023/01/05 10:30:45;;;;;;;2.17;1.98;;;;;;;9.65;75.51;96825.44;5082757;28;20038;-65
2023/01/05 10:33:15;;;;;;;3.92;2.35;;;;;;;9.27;75.98;96832.41;5088201;28;20035;-67
2023/01/05 10:35:55;;;;;;;2.35;2.25;;;;;;;8.98;77.31;96827.34;5092702;28;20040;-64
2023/01/05 10:38:33;;;;;;;4.28;2.90;;;;;;;8.99;77.97;96833.47;5092506;28;20135;-64
2023/01/05 10:40:58;;;;;;;3.38;3.17;;;;;;;8.99;78.45;96828.22;5092413;28;20044;-64
2023/01/05 10:43:40;;;;;;;2.90;2.70;;;;;;;8.85;78.55;96824.72;5091275;28;20066;-64
2023/01/05 10:46:10;;;;;;;2.53;2.40;;;;;;;8.65;79.86;96814.72;5090503;28;20028;-64
2023/01/05 10:48:36;;;;;;;2.70;2.50;;;;;;;8.64;81.55;96813.88;5088806;28;20035;-65
2023/01/05 10:51:03;;;;;;;3.10;2.70;;;;;;;8.70;81.98;96808.22;5085542;28;20028;-65
2023/01/05 10:53:32;;;;;;;2.85;2.60;;;;;;;8.88;81.96;96811.38;5087829;28;20030;-65
2023/01/05 10:56:01;;;;;;;2.67;2.50;;;;;;;9.07;81.75;96810.13;5084981;28;20048;-62
2023/01/05 10:58:29;;;;;;;5.95;2.65;;;;;;;9.28;81.71;96801.72;5085261;28;20058;-62
2023/01/05 11:00:59;;;;;;;2.25;2.15;;;;;;;9.42;79.56;96803.38;5086823;28;20406;-62
2023/01/05 11:03:38;;;;;;;2.42;2.33;;;;;;;9.44;78.52;96802.34;5091352;28;20107;-63
2023/01/05 11:06:04;;;;;;;4.30;2.00;;;;;;;9.50;79.88;96797.59;5089797;28;20116;-62
2023/01/05 11:08:31;;;;;;;2.60;2.40;;;;;;;9.55;79.01;96792.84;5091244;28;20035;-61
2023/01/05 11:10:59;;;;;;;3.67;2.50;;;;;;;9.62;77.20;96782.72;5090963;28;20055;-61
2023/01/05 11:13:41;;;;;;;2.63;2.42;;;;;;;9.45;72.33;96785.59;5092359;28;20054;-62
2023/01/05 11:16:19;;;;;;;6.03;3.00;;;;;;;9.61;77.58;96779.25;5073293;28;20032;-65
2023/01/05 11:18:52;;;;;;;5.65;3.20;;;;;;;9.83;74.52;96780.34;5091073;28;20417;-65
2023/01/05 11:21:18;;;;;;;3.00;2.80;;;;;;;9.76;74.44;96774.69;5092017;28;20032;-65
2023/01/05 11:23:50;;;;;;;3.20;3.00;;;;;;;10.00;73.88;96771.25;5091493;28;20431;-65
2023/01/05 11:26:18;;;;;;;4.90;2.72;;;;;;;10.31;73.71;96761.94;5091739;28;20048;-65
2023/01/05 11:28:56;;;;;;;5.68;2.30;;;;;;;10.85;71.04;96758.88;5091067;28;20043;-65
2023/01/05 11:31:22;;;;;;;2.88;2.67;;;;;;;11.31;67.40;96757.09;5077886;28;20036;-68
2023/01/05 11:33:55;;;;;;;3.33;2.92;;;;;;;11.59;67.50;96752.28;5071418;28;20032;-69
2023/01/05 11:36:20;;;;;;;3.22;2.92;;;;;;;11.82;65.19;96755.72;5086152;28;20032;-67
2023/01/05 11:38:53;;;;;;;4.80;3.83;;;;;;;11.85;64.61;96754.63;5091659;28;20114;-67
2023/01/05 11:41:21;;;;;;;2.97;2.75;;;;;;;11.92;62.95;96744.41;5088776;28;20046;-67
2023/01/05 11:43:47;;;;;;;2.80;2.10;;;;;;;12.32;63.06;96741.16;5081318;28;20418;-67
2023/01/05 11:46:14;;;;;;;2.97;2.25;;;;;;;12.58;60.57;96732.88;5077820;28;20516;-67
2023/01/05 11:48:50;;;;;;;2.53;2.30;;;;;;;12.75;60.07;96720.91;5081463;28;20040;-67
2023/01/05 11:51:33;;;;;;;2.42;2.25;;;;;;;12.84;54.59;96720.09;5071611;28;20040;-63
2023/01/05 11:53:59;;;;;;;2.33;2.00;;;;;;;12.90;58.24;96710.81;5072027;28;20551;-67
2023/01/05 11:56:24;;;;;;;3.80;1.75;;;;;;;13.04;56.35;96710.47;5075594;28;20032;-68
2023/01/05 11:58:53;;;;;;;3.00;2.20;;;;;;;13.22;58.89;96709.00;5091198;28;20040;-68
2023/01/05 12:01:56;;;;;;;2.22;1.98;;;;;;;13.27;56.55;96704.16;5090550;28;20036;-68
2023/01/05 12:05:00;;;;;;;1.92;1.80;;;;;;;13.22;56.22;96701.09;5090186;28;20616;-68